Time;durP1;ratioP1;P1;durP2;ratioP2;P2;SDS_P1;SDS_P2;PMS_P1;PMS_P2;Temp;Humidity;BMP_temperature;BMP_pressure;BME280_temperature;BME280_humidity;BME280_pressure;Samples;Min_cycle;Max_cycle;Signal;HPM_P1;HPM_P2
2019/12/10 00:00:38;;;;;;;5.5;4.900001;;;;;;;4.33;83.39844;94973.41;;;;
2019/12/10 00:01:39;;;;;;;5.5;4.900001;;;;;;;4.33;83.39844;94973.41;;;;
2019/12/10 00:02:40;;;;;;;5.5;4.900001;;;;;;;4.33;83.39844;94973.41;;;;
2019/12/10 00:03:42;;;;;;;5.5;4.900001;;;;;;;4.33;83.39844;94973.41;;;;
2019/12/10 00:04:43;;;;;;;5.5;4.900001;;;;;;;4.33;83.39844;94973.41;;;;
2019/12/10 00:05:44;;;;;;;5.65;4.950001;;;;;;;4.32;84.21875;94996.2;;;;
2019/12/10 00:06:45;;;;;;;5.65;4.950001;;;;;;;4.32;84.21875;94996.2;;;;
2019/12/10 00:07:46;;;;;;;5.65;4.950001;;;;;;;4.32;84.21875;94996.2;;;;
2019/12/10 00:08:47;;;;;;;5.65;4.950001;;;;;;;4.32;84.21875;94996.2;;;;
2019/12/10 00:09:48;;;;;;;5.65;4.950001;;;;;;;4.32;84.21875;94996.2;;;;
2019/12/10 00:10:49;;;;;;;5.65;4.950001;;;;;;;4.32;84.21875;94996.2;;;;
2019/12/10 00:11:50;;;;;;;5.65;4.950001;;;;;;;4.32;84.21875;94996.2;;;;
2019/12/10 00:12:51;;;;;;;5.65;4.950001;;;;;;;4.32;84.21875;94996.2;;;;
2019/12/10 00:13:53;;;;;;;5.65;4.950001;;;;;;;4.32;84.21875;94996.2;;;;
2019/12/10 00:14:54;;;;;;;5.65;4.950001;;;;;;;4.32;84.21875;94996.2;;;;
2019/12/10 00:15:55;;;;;;;5.65;4.950001;;;;;;;4.32;84.21875;94996.2;;;;
2019/12/10 00:16:56;;;;;;;6.750001;6.05;;;;;;;4.27;84.20898;95011.53;;;;
2019/12/10 00:17:57;;;;;;;6.750001;6.05;;;;;;;4.27;84.20898;95011.53;;;;
2019/12/10 00:18:58;;;;;;;6.750001;6.05;;;;;;;4.27;84.20898;95011.53;;;;
2019/12/10 00:19:59;;;;;;;6.750001;6.05;;;;;;;4.27;84.20898;95011.53;;;;
2019/12/10 00:21:00;;;;;;;6.750001;6.05;;;;;;;4.27;84.20898;95011.53;;;;
2019/12/10 00:22:02;;;;;;;6.750001;6.05;;;;;;;4.27;84.20898;95011.53;;;;
2019/12/10 00:23:03;;;;;;;6.750001;6.05;;;;;;;4.27;84.20898;95011.53;;;;
2019/12/10 00:24:04;;;;;;;6.750001;6.05;;;;;;;4.27;84.20898;95011.53;;;;
2019/12/10 00:25:05;;;;;;;6.750001;6.05;;;;;;;4.27;84.20898;95011.53;;;;
2019/12/10 00:26:06;;;;;;;6.750001;6.05;;;;;;;4.27;84.20898;95011.53;;;;
2019/12/10 00:27:07;;;;;;;5.150001;4.65;;;;;;;4.26;85.09082;95038.34;;;;
2019/12/10 00:28:08;;;;;;;5.150001;4.65;;;;;;;4.26;85.09082;95038.34;;;;
2019/12/10 00:29:09;;;;;;;5.150001;4.65;;;;;;;4.26;85.09082;95038.34;;;;
2019/12/10 00:30:29;;;;;;;5.150001;4.65;;;;;;;4.26;85.09082;95038.34;;;;
2019/12/10 00:36:43;;;;;;;5.150001;4.65;;;;;;;4.26;85.09082;95038.34;;;;
2019/12/10 00:37:45;;;;;;;5.600001;5;;;;;;;4.17;85.69336;95052.92;;;;
2019/12/10 00:38:46;;;;;;;5.600001;5;;;;;;;4.17;85.69336;95052.92;;;;
2019/12/10 00:39:47;;;;;;;5.600001;5;;;;;;;4.17;85.69336;95052.92;;;;
2019/12/10 00:40:48;;;;;;;5.600001;5;;;;;;;4.17;85.69336;95052.92;;;;
2019/12/10 00:41:49;;;;;;;5.600001;5;;;;;;;4.17;85.69336;95052.92;;;;
2019/12/10 00:42:50;;;;;;;5.600001;5;;;;;;;4.17;85.69336;95052.92;;;;
2019/12/10 00:43:51;;;;;;;5.600001;5;;;;;;;4.17;85.69336;95052.92;;;;
2019/12/10 00:44:52;;;;;;;5.600001;5;;;;;;;4.17;85.69336;95052.92;;;;
2019/12/10 00:45:54;;;;;;;5.600001;5;;;;;;;4.17;85.69336;95052.92;;;;
2019/12/10 00:46:55;;;;;;;5.600001;5;;;;;;;4.17;85.69336;95052.92;;;;
2019/12/10 00:47:56;;;;;;;5.600001;5;;;;;;;4.17;85.69336;95052.92;;;;
2019/12/10 00:48:57;;;;;;;5.15;4.65;;;;;;;4.16;86.77148;95071.33;;;;
2019/12/10 00:49:58;;;;;;;5.15;4.65;;;;;;;4.16;86.77148;95071.33;;;;
2019/12/10 00:50:59;;;;;;;5.15;4.65;;;;;;;4.16;86.77148;95071.33;;;;
2019/12/10 00:52:00;;;;;;;5.15;4.65;;;;;;;4.16;86.77148;95071.33;;;;
2019/12/10 00:53:01;;;;;;;5.15;4.65;;;;;;;4.16;86.77148;95071.33;;;;
2019/12/10 00:54:02;;;;;;;5.15;4.65;;;;;;;4.16;86.77148;95071.33;;;;
2019/12/10 00:55:04;;;;;;;5.15;4.65;;;;;;;4.16;86.77148;95071.33;;;;
2019/12/10 00:56:05;;;;;;;5.15;4.65;;;;;;;4.16;86.77148;95071.33;;;;
2019/12/10 00:57:06;;;;;;;5.15;4.65;;;;;;;4.16;86.77148;95071.33;;;;
2019/12/10 00:58:07;;;;;;;5.15;4.65;;;;;;;4.16;86.77148;95071.33;;;;
2019/12/10 00:59:08;;;;;;;5.6;4.75;;;;;;;4.11;86.7207;95101;;;;
2019/12/10 01:00:09;;;;;;;5.6;4.75;;;;;;;4.11;86.7207;95101;;;;
2019/12/10 01:01:10;;;;;;;5.6;4.75;;;;;;;4.11;86.7207;95101;;;;
2019/12/10 01:02:11;;;;;;;5.6;4.75;;;;;;;4.11;86.7207;95101;;;;
2019/12/10 01:03:13;;;;;;;5.6;4.75;;;;;;;4.11;86.7207;95101;;;;
2019/12/10 01:04:14;;;;;;;5.6;4.75;;;;;;;4.11;86.7207;95101;;;;
2019/12/10 01:05:15;;;;;;;5.6;4.75;;;;;;;4.11;86.7207;95101;;;;
2019/12/10 01:06:16;;;;;;;5.6;4.75;;;;;;;4.11;86.7207;95101;;;;
2019/12/10 01:07:17;;;;;;;5.6;4.75;;;;;;;4.11;86.7207;95101;;;;
2019/12/10 01:08:18;;;;;;;5.6;4.75;;;;;;;4.11;86.7207;95101;;;;
2019/12/10 01:09:19;;;;;;;5.6;4.75;;;;;;;4.11;86.7207;95101;;;;
2019/12/10 01:10:20;;;;;;;5.699999;5.1;;;;;;;4.11;86.59473;95138.4;;;;
2019/12/10 01:11:21;;;;;;;5.699999;5.1;;;;;;;4.11;86.59473;95138.4;;;;
2019/12/10 01:12:22;;;;;;;5.699999;5.1;;;;;;;4.11;86.59473;95138.4;;;;
2019/12/10 01:13:24;;;;;;;5.699999;5.1;;;;;;;4.11;86.59473;95138.4;;;;
2019/12/10 01:14:25;;;;;;;5.699999;5.1;;;;;;;4.11;86.59473;95138.4;;;;
2019/12/10 01:15:26;;;;;;;5.699999;5.1;;;;;;;4.11;86.59473;95138.4;;;;
2019/12/10 01:16:27;;;;;;;5.699999;5.1;;;;;;;4.11;86.59473;95138.4;;;;
2019/12/10 01:17:28;;;;;;;5.699999;5.1;;;;;;;4.11;86.59473;95138.4;;;;
2019/12/10 01:18:29;;;;;;;5.699999;5.1;;;;;;;4.11;86.59473;95138.4;;;;
2019/12/10 01:19:30;;;;;;;5.699999;5.1;;;;;;;4.11;86.59473;95138.4;;;;
2019/12/10 01:20:31;;;;;;;6.1;5.15;;;;;;;4.08;86.54492;95166.44;;;;
2019/12/10 01:21:32;;;;;;;6.1;5.15;;;;;;;4.08;86.54492;95166.44;;;;
2019/12/10 01:22:34;;;;;;;6.1;5.15;;;;;;;4.08;86.54492;95166.44;;;;
2019/12/10 01:23:35;;;;;;;6.1;5.15;;;;;;;4.08;86.54492;95166.44;;;;
2019/12/10 01:24:36;;;;;;;6.1;5.15;;;;;;;4.08;86.54492;95166.44;;;;
2019/12/10 01:25:37;;;;;;;6.1;5.15;;;;;;;4.08;86.54492;95166.44;;;;
2019/12/10 01:26:38;;;;;;;6.1;5.15;;;;;;;4.08;86.54492;95166.44;;;;
2019/12/10 01:27:39;;;;;;;6.1;5.15;;;;;;;4.08;86.54492;95166.44;;;;
2019/12/10 01:28:41;;;;;;;6.1;5.15;;;;;;;4.08;86.54492;95166.44;;;;
2019/12/10 01:29:43;;;;;;;6.1;5.15;;;;;;;4.08;86.54492;95166.44;;;;
2019/12/10 01:30:55;;;;;;;5.25;4.75;;;;;;;4.1;86.62402;95191;;;;
2019/12/10 01:37:02;;;;;;;5.25;4.75;;;;;;;4.1;86.62402;95191;;;;
2019/12/10 01:41:35;;;;;;;6.349999;5.1;;;;;;;4.02;86.62988;95192.52;;;;
2019/12/10 01:42:36;;;;;;;6.349999;5.1;;;;;;;4.02;86.62988;95192.52;;;;
2019/12/10 01:43:37;;;;;;;6.349999;5.1;;;;;;;4.02;86.62988;95192.52;;;;
2019/12/10 01:44:38;;;;;;;6.349999;5.1;;;;;;;4.02;86.62988;95192.52;;;;
2019/12/10 01:45:40;;;;;;;6.349999;5.1;;;;;;;4.02;86.62988;95192.52;;;;
2019/12/10 01:46:41;;;;;;;6.349999;5.1;;;;;;;4.02;86.62988;95192.52;;;;
2019/12/10 01:47:42;;;;;;;6.349999;5.1;;;;;;;4.02;86.62988;95192.52;;;;
2019/12/10 01:48:43;;;;;;;6.349999;5.1;;;;;;;4.02;86.62988;95192.52;;;;
2019/12/10 01:49:44;;;;;;;6.349999;5.1;;;;;;;4.02;86.62988;95192.52;;;;
2019/12/10 01:50:45;;;;;;;6.349999;5.1;;;;;;;4.02;86.62988;95192.52;;;;
2019/12/10 01:51:46;;;;;;;6.349999;5.1;;;;;;;4.02;86.62988;95192.52;;;;
2019/12/10 01:52:47;;;;;;;6.900001;5.799999;;;;;;;4.02;87.01855;95210.8;;;;
2019/12/10 01:53:48;;;;;;;6.900001;5.799999;;;;;;;4.02;87.01855;95210.8;;;;
2019/12/10 01:54:49;;;;;;;6.900001;5.799999;;;;;;;4.02;87.01855;95210.8;;;;
2019/12/10 01:55:50;;;;;;;6.900001;5.799999;;;;;;;4.02;87.01855;95210.8;;;;
2019/12/10 01:56:52;;;;;;;6.900001;5.799999;;;;;;;4.02;87.01855;95210.8;;;;
2019/12/10 01:57:53;;;;;;;6.900001;5.799999;;;;;;;4.02;87.01855;95210.8;;;;
2019/12/10 01:58:54;;;;;;;6.900001;5.799999;;;;;;;4.02;87.01855;95210.8;;;;
2019/12/10 01:59:55;;;;;;;6.900001;5.799999;;;;;;;4.02;87.01855;95210.8;;;;
2019/12/10 02:00:56;;;;;;;6.900001;5.799999;;;;;;;4.02;87.01855;95210.8;;;;
2019/12/10 02:01:57;;;;;;;6.900001;5.799999;;;;;;;4.02;87.01855;95210.8;;;;
2019/12/10 02:02:58;;;;;;;7;6.299999;;;;;;;3.98;87.01953;95234.08;;;;
2019/12/10 02:03:59;;;;;;;7;6.299999;;;;;;;3.98;87.01953;95234.08;;;;
2019/12/10 02:05:01;;;;;;;7;6.299999;;;;;;;3.98;87.01953;95234.08;;;;
2019/12/10 02:06:02;;;;;;;7;6.299999;;;;;;;3.98;87.01953;95234.08;;;;
2019/12/10 02:07:03;;;;;;;7;6.299999;;;;;;;3.98;87.01953;95234.08;;;;
2019/12/10 02:08:04;;;;;;;7;6.299999;;;;;;;3.98;87.01953;95234.08;;;;
2019/12/10 02:09:05;;;;;;;7;6.299999;;;;;;;3.98;87.01953;95234.08;;;;
2019/12/10 02:10:07;;;;;;;7;6.299999;;;;;;;3.98;87.01953;95234.08;;;;
2019/12/10 02:11:08;;;;;;;7;6.299999;;;;;;;3.98;87.01953;95234.08;;;;
2019/12/10 02:12:09;;;;;;;7;6.299999;;;;;;;3.98;87.01953;95234.08;;;;
2019/12/10 02:13:10;;;;;;;6.899999;5.85;;;;;;;4;87.39063;95251.15;;;;
2019/12/10 02:14:12;;;;;;;6.899999;5.85;;;;;;;4;87.39063;95251.15;;;;
2019/12/10 02:15:13;;;;;;;6.899999;5.85;;;;;;;4;87.39063;95251.15;;;;
2019/12/10 02:16:14;;;;;;;6.899999;5.85;;;;;;;4;87.39063;95251.15;;;;
2019/12/10 02:17:15;;;;;;;6.899999;5.85;;;;;;;4;87.39063;95251.15;;;;
2019/12/10 02:18:16;;;;;;;6.899999;5.85;;;;;;;4;87.39063;95251.15;;;;
2019/12/10 02:19:18;;;;;;;6.899999;5.85;;;;;;;4;87.39063;95251.15;;;;
2019/12/10 02:20:19;;;;;;;6.899999;5.85;;;;;;;4;87.39063;95251.15;;;;
2019/12/10 02:21:20;;;;;;;6.899999;5.85;;;;;;;4;87.39063;95251.15;;;;
2019/12/10 02:22:21;;;;;;;6.899999;5.85;;;;;;;4;87.39063;95251.15;;;;
2019/12/10 02:23:22;;;;;;;6.899999;5.85;;;;;;;4;87.39063;95251.15;;;;
2019/12/10 02:24:23;;;;;;;6.6;5.900001;;;;;;;3.94;87.79688;95276.92;;;;
2019/12/10 02:25:25;;;;;;;6.6;5.900001;;;;;;;3.94;87.79688;95276.92;;;;
2019/12/10 02:26:26;;;;;;;6.6;5.900001;;;;;;;3.94;87.79688;95276.92;;;;
2019/12/10 02:27:27;;;;;;;6.6;5.900001;;;;;;;3.94;87.79688;95276.92;;;;
2019/12/10 02:28:28;;;;;;;6.6;5.900001;;;;;;;3.94;87.79688;95276.92;;;;
2019/12/10 02:29:30;;;;;;;6.6;5.900001;;;;;;;3.94;87.79688;95276.92;;;;
2019/12/10 02:30:31;;;;;;;6.6;5.900001;;;;;;;3.94;87.79688;95276.92;;;;
2019/12/10 02:31:32;;;;;;;6.6;5.900001;;;;;;;3.94;87.79688;95276.92;;;;
2019/12/10 02:32:33;;;;;;;6.6;5.900001;;;;;;;3.94;87.79688;95276.92;;;;
2019/12/10 02:33:35;;;;;;;6.6;5.900001;;;;;;;3.94;87.79688;95276.92;;;;
2019/12/10 02:34:36;;;;;;;7;6.3;;;;;;;3.92;88.60254;95306.87;;;;
2019/12/10 02:35:37;;;;;;;7;6.3;;;;;;;3.92;88.60254;95306.87;;;;
2019/12/10 02:36:38;;;;;;;7;6.3;;;;;;;3.92;88.60254;95306.87;;;;
2019/12/10 02:37:39;;;;;;;7;6.3;;;;;;;3.92;88.60254;95306.87;;;;
2019/12/10 02:43:55;;;;;;;7;6.3;;;;;;;3.92;88.60254;95306.87;;;;
2019/12/10 02:45:02;;;;;;;7.5;4.7;;;;;;;3.83;88.96094;95321.93;;;;
2019/12/10 02:46:08;;;;;;;7.5;4.7;;;;;;;3.83;88.96094;95321.93;;;;
2019/12/10 02:47:10;;;;;;;7.5;4.7;;;;;;;3.83;88.96094;95321.93;;;;
2019/12/10 02:48:12;;;;;;;7.5;4.7;;;;;;;3.83;88.96094;95321.93;;;;
2019/12/10 02:49:13;;;;;;;7.5;4.7;;;;;;;3.83;88.96094;95321.93;;;;
2019/12/10 02:50:14;;;;;;;7.5;4.7;;;;;;;3.83;88.96094;95321.93;;;;
2019/12/10 02:51:16;;;;;;;7.5;4.7;;;;;;;3.83;88.96094;95321.93;;;;
2019/12/10 02:52:17;;;;;;;7.5;4.7;;;;;;;3.83;88.96094;95321.93;;;;
2019/12/10 02:53:18;;;;;;;7.5;4.7;;;;;;;3.83;88.96094;95321.93;;;;
2019/12/10 02:54:19;;;;;;;7.5;4.7;;;;;;;3.83;88.96094;95321.93;;;;
2019/12/10 02:55:20;;;;;;;7.5;4.7;;;;;;;3.83;88.96094;95321.93;;;;
2019/12/10 02:56:21;;;;;;;7.55;3.65;;;;;;;3.76;89.62695;95362.02;;;;
2019/12/10 02:57:22;;;;;;;7.55;3.65;;;;;;;3.76;89.62695;95362.02;;;;
2019/12/10 02:58:24;;;;;;;7.55;3.65;;;;;;;3.76;89.62695;95362.02;;;;
2019/12/10 02:59:25;;;;;;;7.55;3.65;;;;;;;3.76;89.62695;95362.02;;;;
2019/12/10 03:00:26;;;;;;;7.55;3.65;;;;;;;3.76;89.62695;95362.02;;;;
2019/12/10 03:01:27;;;;;;;7.55;3.65;;;;;;;3.76;89.62695;95362.02;;;;
2019/12/10 03:02:28;;;;;;;7.55;3.65;;;;;;;3.76;89.62695;95362.02;;;;
2019/12/10 03:03:30;;;;;;;7.55;3.65;;;;;;;3.76;89.62695;95362.02;;;;
2019/12/10 03:04:31;;;;;;;7.55;3.65;;;;;;;3.76;89.62695;95362.02;;;;
2019/12/10 03:05:32;;;;;;;7.55;3.65;;;;;;;3.76;89.62695;95362.02;;;;
2019/12/10 03:06:33;;;;;;;11.55;3.85;;;;;;;3.59;89.9082;95378.31;;;;
2019/12/10 03:07:35;;;;;;;11.55;3.85;;;;;;;3.59;89.9082;95378.31;;;;
2019/12/10 03:08:36;;;;;;;11.55;3.85;;;;;;;3.59;89.9082;95378.31;;;;
2019/12/10 03:09:38;;;;;;;11.55;3.85;;;;;;;3.59;89.9082;95378.31;;;;
2019/12/10 03:10:39;;;;;;;11.55;3.85;;;;;;;3.59;89.9082;95378.31;;;;
2019/12/10 03:11:40;;;;;;;11.55;3.85;;;;;;;3.59;89.9082;95378.31;;;;
2019/12/10 03:12:41;;;;;;;11.55;3.85;;;;;;;3.59;89.9082;95378.31;;;;
2019/12/10 03:13:42;;;;;;;11.55;3.85;;;;;;;3.59;89.9082;95378.31;;;;
2019/12/10 03:14:44;;;;;;;11.55;3.85;;;;;;;3.59;89.9082;95378.31;;;;
2019/12/10 03:15:45;;;;;;;11.55;3.85;;;;;;;3.59;89.9082;95378.31;;;;
2019/12/10 03:16:46;;;;;;;7.65;3.15;;;;;;;3.51;90.52051;95411.78;;;;
2019/12/10 03:17:47;;;;;;;7.65;3.15;;;;;;;3.51;90.52051;95411.78;;;;
2019/12/10 03:18:48;;;;;;;7.65;3.15;;;;;;;3.51;90.52051;95411.78;;;;
2019/12/10 03:19:50;;;;;;;7.65;3.15;;;;;;;3.51;90.52051;95411.78;;;;
2019/12/10 03:20:51;;;;;;;7.65;3.15;;;;;;;3.51;90.52051;95411.78;;;;
2019/12/10 03:21:52;;;;;;;7.65;3.15;;;;;;;3.51;90.52051;95411.78;;;;
2019/12/10 03:22:53;;;;;;;7.65;3.15;;;;;;;3.51;90.52051;95411.78;;;;
2019/12/10 03:23:54;;;;;;;7.65;3.15;;;;;;;3.51;90.52051;95411.78;;;;
2019/12/10 03:24:55;;;;;;;7.65;3.15;;;;;;;3.51;90.52051;95411.78;;;;
2019/12/10 03:25:57;;;;;;;7.65;3.15;;;;;;;3.51;90.52051;95411.78;;;;
2019/12/10 03:26:58;;;;;;;7.65;3.15;;;;;;;3.51;90.52051;95411.78;;;;
2019/12/10 03:27:59;;;;;;;7;3.25;;;;;;;3.37;90.54102;95429.6;;;;
2019/12/10 03:29:00;;;;;;;7;3.25;;;;;;;3.37;90.54102;95429.6;;;;
2019/12/10 03:30:01;;;;;;;7;3.25;;;;;;;3.37;90.54102;95429.6;;;;
2019/12/10 03:31:03;;;;;;;7;3.25;;;;;;;3.37;90.54102;95429.6;;;;
2019/12/10 03:32:04;;;;;;;7;3.25;;;;;;;3.37;90.54102;95429.6;;;;
2019/12/10 03:33:07;;;;;;;7;3.25;;;;;;;3.37;90.54102;95429.6;;;;
2019/12/10 03:34:09;;;;;;;7;3.25;;;;;;;3.37;90.54102;95429.6;;;;
2019/12/10 03:35:10;;;;;;;7;3.25;;;;;;;3.37;90.54102;95429.6;;;;
2019/12/10 03:36:11;;;;;;;7;3.25;;;;;;;3.37;90.54102;95429.6;;;;
2019/12/10 03:37:12;;;;;;;7;3.25;;;;;;;3.37;90.54102;95429.6;;;;
2019/12/10 03:38:14;;;;;;;9.5;4.3;;;;;;;3.33;90.74316;95458.58;;;;
2019/12/10 03:39:16;;;;;;;9.5;4.3;;;;;;;3.33;90.74316;95458.58;;;;
2019/12/10 03:40:17;;;;;;;9.5;4.3;;;;;;;3.33;90.74316;95458.58;;;;
2019/12/10 03:46:27;;;;;;;9.5;4.3;;;;;;;3.33;90.74316;95458.58;;;;
2019/12/10 03:47:28;;;;;;;9.5;4.3;;;;;;;3.33;90.74316;95458.58;;;;
2019/12/10 03:48:30;;;;;;;9.6;3.3;;;;;;;3.23;90.6377;95475.39;;;;
2019/12/10 03:49:31;;;;;;;9.6;3.3;;;;;;;3.23;90.6377;95475.39;;;;
2019/12/10 03:50:33;;;;;;;9.6;3.3;;;;;;;3.23;90.6377;95475.39;;;;
2019/12/10 03:51:34;;;;;;;9.6;3.3;;;;;;;3.23;90.6377;95475.39;;;;
2019/12/10 03:52:35;;;;;;;9.6;3.3;;;;;;;3.23;90.6377;95475.39;;;;
2019/12/10 03:53:36;;;;;;;9.6;3.3;;;;;;;3.23;90.6377;95475.39;;;;
2019/12/10 03:54:37;;;;;;;9.6;3.3;;;;;;;3.23;90.6377;95475.39;;;;
2019/12/10 03:55:39;;;;;;;9.6;3.3;;;;;;;3.23;90.6377;95475.39;;;;
2019/12/10 03:56:40;;;;;;;9.6;3.3;;;;;;;3.23;90.6377;95475.39;;;;
2019/12/10 03:57:41;;;;;;;9.6;3.3;;;;;;;3.23;90.6377;95475.39;;;;
2019/12/10 03:58:42;;;;;;;9.6;3.3;;;;;;;3.23;90.6377;95475.39;;;;
2019/12/10 03:59:43;;;;;;;6.25;2.7;;;;;;;3.18;91.12988;95507.56;;;;
2019/12/10 04:00:44;;;;;;;6.25;2.7;;;;;;;3.18;91.12988;95507.56;;;;
2019/12/10 04:01:45;;;;;;;6.25;2.7;;;;;;;3.18;91.12988;95507.56;;;;
2019/12/10 04:02:46;;;;;;;6.25;2.7;;;;;;;3.18;91.12988;95507.56;;;;
2019/12/10 04:03:47;;;;;;;6.25;2.7;;;;;;;3.18;91.12988;95507.56;;;;
2019/12/10 04:04:48;;;;;;;6.25;2.7;;;;;;;3.18;91.12988;95507.56;;;;
2019/12/10 04:05:50;;;;;;;6.25;2.7;;;;;;;3.18;91.12988;95507.56;;;;
2019/12/10 04:06:51;;;;;;;6.25;2.7;;;;;;;3.18;91.12988;95507.56;;;;
2019/12/10 04:07:52;;;;;;;6.25;2.7;;;;;;;3.18;91.12988;95507.56;;;;
2019/12/10 04:08:53;;;;;;;6.25;2.7;;;;;;;3.18;91.12988;95507.56;;;;
2019/12/10 04:09:54;;;;;;;7.65;3.15;;;;;;;3.03;91.09766;95515.15;;;;
2019/12/10 04:10:56;;;;;;;7.65;3.15;;;;;;;3.03;91.09766;95515.15;;;;
2019/12/10 04:11:57;;;;;;;7.65;3.15;;;;;;;3.03;91.09766;95515.15;;;;
2019/12/10 04:12:58;;;;;;;7.65;3.15;;;;;;;3.03;91.09766;95515.15;;;;
2019/12/10 04:14:00;;;;;;;7.65;3.15;;;;;;;3.03;91.09766;95515.15;;;;
2019/12/10 04:15:02;;;;;;;7.65;3.15;;;;;;;3.03;91.09766;95515.15;;;;
2019/12/10 04:16:03;;;;;;;7.65;3.15;;;;;;;3.03;91.09766;95515.15;;;;
2019/12/10 04:17:04;;;;;;;7.65;3.15;;;;;;;3.03;91.09766;95515.15;;;;
2019/12/10 04:18:05;;;;;;;7.65;3.15;;;;;;;3.03;91.09766;95515.15;;;;
2019/12/10 04:19:07;;;;;;;7.65;3.15;;;;;;;3.03;91.09766;95515.15;;;;
2019/12/10 04:20:08;;;;;;;7.65;3.15;;;;;;;3.03;91.09766;95515.15;;;;
2019/12/10 04:21:09;;;;;;;10.45;4.050001;;;;;;;2.99;91.40332;95536.11;;;;
2019/12/10 04:22:10;;;;;;;10.45;4.050001;;;;;;;2.99;91.40332;95536.11;;;;
2019/12/10 04:23:11;;;;;;;10.45;4.050001;;;;;;;2.99;91.40332;95536.11;;;;
2019/12/10 04:24:12;;;;;;;10.45;4.050001;;;;;;;2.99;91.40332;95536.11;;;;
2019/12/10 04:25:14;;;;;;;10.45;4.050001;;;;;;;2.99;91.40332;95536.11;;;;
2019/12/10 04:26:15;;;;;;;10.45;4.050001;;;;;;;2.99;91.40332;95536.11;;;;
2019/12/10 04:27:16;;;;;;;10.45;4.050001;;;;;;;2.99;91.40332;95536.11;;;;
2019/12/10 04:28:17;;;;;;;10.45;4.050001;;;;;;;2.99;91.40332;95536.11;;;;
2019/12/10 04:29:18;;;;;;;10.45;4.050001;;;;;;;2.99;91.40332;95536.11;;;;
2019/12/10 04:30:20;;;;;;;10.45;4.050001;;;;;;;2.99;91.40332;95536.11;;;;
2019/12/10 04:31:21;;;;;;;12.2;5.15;;;;;;;2.92;91.39844;95560.52;;;;
2019/12/10 04:32:22;;;;;;;12.2;5.15;;;;;;;2.92;91.39844;95560.52;;;;
2019/12/10 04:33:23;;;;;;;12.2;5.15;;;;;;;2.92;91.39844;95560.52;;;;
2019/12/10 04:34:24;;;;;;;12.2;5.15;;;;;;;2.92;91.39844;95560.52;;;;
2019/12/10 04:35:25;;;;;;;12.2;5.15;;;;;;;2.92;91.39844;95560.52;;;;
2019/12/10 04:36:26;;;;;;;12.2;5.15;;;;;;;2.92;91.39844;95560.52;;;;
2019/12/10 04:37:27;;;;;;;12.2;5.15;;;;;;;2.92;91.39844;95560.52;;;;
2019/12/10 04:38:28;;;;;;;12.2;5.15;;;;;;;2.92;91.39844;95560.52;;;;
2019/12/10 04:39:29;;;;;;;12.2;5.15;;;;;;;2.92;91.39844;95560.52;;;;
2019/12/10 04:40:30;;;;;;;12.2;5.15;;;;;;;2.92;91.39844;95560.52;;;;
2019/12/10 04:41:31;;;;;;;12.2;5.15;;;;;;;2.92;91.39844;95560.52;;;;
2019/12/10 04:42:33;;;;;;;13.2;4.700001;;;;;;;2.95;91.62598;95592.17;;;;
2019/12/10 04:43:34;;;;;;;13.2;4.700001;;;;;;;2.95;91.62598;95592.17;;;;
2019/12/10 04:44:35;;;;;;;13.2;4.700001;;;;;;;2.95;91.62598;95592.17;;;;
2019/12/10 04:45:36;;;;;;;13.2;4.700001;;;;;;;2.95;91.62598;95592.17;;;;
2019/12/10 04:46:37;;;;;;;13.2;4.700001;;;;;;;2.95;91.62598;95592.17;;;;
2019/12/10 04:47:38;;;;;;;13.2;4.700001;;;;;;;2.95;91.62598;95592.17;;;;
2019/12/10 04:48:39;;;;;;;13.2;4.700001;;;;;;;2.95;91.62598;95592.17;;;;
2019/12/10 04:49:40;;;;;;;13.2;4.700001;;;;;;;2.95;91.62598;95592.17;;;;
2019/12/10 04:50:42;;;;;;;13.2;4.700001;;;;;;;2.95;91.62598;95592.17;;;;
2019/12/10 04:51:43;;;;;;;13.2;4.700001;;;;;;;2.95;91.62598;95592.17;;;;
2019/12/10 04:52:44;;;;;;;13.2;4.299999;;;;;;;2.89;91.60352;95629.72;;;;
2019/12/10 04:53:45;;;;;;;13.2;4.299999;;;;;;;2.89;91.60352;95629.72;;;;
2019/12/10 04:54:46;;;;;;;13.2;4.299999;;;;;;;2.89;91.60352;95629.72;;;;
2019/12/10 04:55:47;;;;;;;13.2;4.299999;;;;;;;2.89;91.60352;95629.72;;;;
2019/12/10 04:56:48;;;;;;;13.2;4.299999;;;;;;;2.89;91.60352;95629.72;;;;
2019/12/10 04:57:49;;;;;;;13.2;4.299999;;;;;;;2.89;91.60352;95629.72;;;;
2019/12/10 04:58:50;;;;;;;13.2;4.299999;;;;;;;2.89;91.60352;95629.72;;;;
2019/12/10 04:59:54;;;;;;;13.2;4.299999;;;;;;;2.89;91.60352;95629.72;;;;
2019/12/10 05:00:56;;;;;;;13.2;4.299999;;;;;;;2.89;91.60352;95629.72;;;;
2019/12/10 05:01:58;;;;;;;13.2;4.299999;;;;;;;2.89;91.60352;95629.72;;;;
2019/12/10 05:03:00;;;;;;;14.85;3.55;;;;;;;2.86;91.53223;95658.17;;;;
2019/12/10 05:04:01;;;;;;;14.85;3.55;;;;;;;2.86;91.53223;95658.17;;;;
2019/12/10 05:05:02;;;;;;;14.85;3.55;;;;;;;2.86;91.53223;95658.17;;;;
2019/12/10 05:06:03;;;;;;;14.85;3.55;;;;;;;2.86;91.53223;95658.17;;;;
2019/12/10 05:07:04;;;;;;;14.85;3.55;;;;;;;2.86;91.53223;95658.17;;;;
2019/12/10 05:08:06;;;;;;;14.85;3.55;;;;;;;2.86;91.53223;95658.17;;;;
2019/12/10 05:09:07;;;;;;;14.85;3.55;;;;;;;2.86;91.53223;95658.17;;;;
2019/12/10 05:10:08;;;;;;;14.85;3.55;;;;;;;2.86;91.53223;95658.17;;;;
2019/12/10 05:11:09;;;;;;;14.85;3.55;;;;;;;2.86;91.53223;95658.17;;;;
2019/12/10 05:12:10;;;;;;;14.85;3.55;;;;;;;2.86;91.53223;95658.17;;;;
2019/12/10 05:13:11;;;;;;;14.85;3.55;;;;;;;2.86;91.53223;95658.17;;;;
2019/12/10 05:14:12;;;;;;;11.1;3.9;;;;;;;2.79;91.43457;95682.03;;;;
2019/12/10 05:15:13;;;;;;;11.1;3.9;;;;;;;2.79;91.43457;95682.03;;;;
2019/12/10 05:16:15;;;;;;;11.1;3.9;;;;;;;2.79;91.43457;95682.03;;;;
2019/12/10 05:17:18;;;;;;;11.1;3.9;;;;;;;2.79;91.43457;95682.03;;;;
2019/12/10 05:18:21;;;;;;;11.1;3.9;;;;;;;2.79;91.43457;95682.03;;;;
2019/12/10 05:19:23;;;;;;;11.1;3.9;;;;;;;2.79;91.43457;95682.03;;;;
2019/12/10 05:20:26;;;;;;;11.1;3.9;;;;;;;2.79;91.43457;95682.03;;;;
2019/12/10 05:26:37;;;;;;;12.7;3.1;;;;;;;2.76;91.57324;95698.89;;;;
2019/12/10 05:27:38;;;;;;;12.7;3.1;;;;;;;2.76;91.57324;95698.89;;;;
2019/12/10 05:28:39;;;;;;;12.7;3.1;;;;;;;2.76;91.57324;95698.89;;;;
2019/12/10 05:29:40;;;;;;;12.7;3.1;;;;;;;2.76;91.57324;95698.89;;;;
2019/12/10 05:30:41;;;;;;;12.7;3.1;;;;;;;2.76;91.57324;95698.89;;;;
2019/12/10 05:31:42;;;;;;;12.7;3.1;;;;;;;2.76;91.57324;95698.89;;;;
2019/12/10 05:32:43;;;;;;;12.7;3.1;;;;;;;2.76;91.57324;95698.89;;;;
2019/12/10 05:33:44;;;;;;;12.7;3.1;;;;;;;2.76;91.57324;95698.89;;;;
2019/12/10 05:34:45;;;;;;;12.55;3.3;;;;;;;2.43;91.33789;95715.1;;;;
2019/12/10 05:35:46;;;;;;;12.55;3.3;;;;;;;2.43;91.33789;95715.1;;;;
2019/12/10 05:36:47;;;;;;;12.55;3.3;;;;;;;2.43;91.33789;95715.1;;;;
2019/12/10 05:37:49;;;;;;;12.55;3.3;;;;;;;2.43;91.33789;95715.1;;;;
2019/12/10 05:38:50;;;;;;;12.55;3.3;;;;;;;2.43;91.33789;95715.1;;;;
2019/12/10 05:39:51;;;;;;;12.55;3.3;;;;;;;2.43;91.33789;95715.1;;;;
2019/12/10 05:40:52;;;;;;;12.55;3.3;;;;;;;2.43;91.33789;95715.1;;;;
2019/12/10 05:41:53;;;;;;;12.55;3.3;;;;;;;2.43;91.33789;95715.1;;;;
2019/12/10 05:42:54;;;;;;;12.55;3.3;;;;;;;2.43;91.33789;95715.1;;;;
2019/12/10 05:43:55;;;;;;;12.55;3.3;;;;;;;2.43;91.33789;95715.1;;;;
2019/12/10 05:44:56;;;;;;;12.55;3.3;;;;;;;2.43;91.33789;95715.1;;;;
2019/12/10 05:45:57;;;;;;;13.85;3.1;;;;;;;2.3;91.81934;95741.58;;;;
2019/12/10 05:46:58;;;;;;;13.85;3.1;;;;;;;2.3;91.81934;95741.58;;;;
2019/12/10 05:47:59;;;;;;;13.85;3.1;;;;;;;2.3;91.81934;95741.58;;;;
2019/12/10 05:49:01;;;;;;;13.85;3.1;;;;;;;2.3;91.81934;95741.58;;;;
2019/12/10 05:50:02;;;;;;;13.85;3.1;;;;;;;2.3;91.81934;95741.58;;;;
2019/12/10 05:51:03;;;;;;;13.85;3.1;;;;;;;2.3;91.81934;95741.58;;;;
2019/12/10 05:52:04;;;;;;;13.85;3.1;;;;;;;2.3;91.81934;95741.58;;;;
2019/12/10 05:53:05;;;;;;;13.85;3.1;;;;;;;2.3;91.81934;95741.58;;;;
2019/12/10 05:54:06;;;;;;;13.85;3.1;;;;;;;2.3;91.81934;95741.58;;;;
2019/12/10 05:55:07;;;;;;;13.85;3.1;;;;;;;2.3;91.81934;95741.58;;;;
2019/12/10 05:56:08;;;;;;;12.95;3.2;;;;;;;2.24;91.77832;95783.06;;;;
2019/12/10 05:57:10;;;;;;;12.95;3.2;;;;;;;2.24;91.77832;95783.06;;;;
2019/12/10 05:58:11;;;;;;;12.95;3.2;;;;;;;2.24;91.77832;95783.06;;;;
2019/12/10 05:59:12;;;;;;;12.95;3.2;;;;;;;2.24;91.77832;95783.06;;;;
2019/12/10 06:00:13;;;;;;;12.95;3.2;;;;;;;2.24;91.77832;95783.06;;;;
2019/12/10 06:01:14;;;;;;;12.95;3.2;;;;;;;2.24;91.77832;95783.06;;;;
2019/12/10 06:02:15;;;;;;;12.95;3.2;;;;;;;2.24;91.77832;95783.06;;;;
2019/12/10 06:03:16;;;;;;;12.95;3.2;;;;;;;2.24;91.77832;95783.06;;;;
2019/12/10 06:04:17;;;;;;;12.95;3.2;;;;;;;2.24;91.77832;95783.06;;;;
2019/12/10 06:05:18;;;;;;;12.95;3.2;;;;;;;2.24;91.77832;95783.06;;;;
2019/12/10 06:06:19;;;;;;;12.95;3.2;;;;;;;2.24;91.77832;95783.06;;;;
2019/12/10 06:07:21;;;;;;;14.75;3.6;;;;;;;2.32;92.01367;95806.59;;;;
2019/12/10 06:08:22;;;;;;;14.75;3.6;;;;;;;2.32;92.01367;95806.59;;;;
2019/12/10 06:09:23;;;;;;;14.75;3.6;;;;;;;2.32;92.01367;95806.59;;;;
2019/12/10 06:10:24;;;;;;;14.75;3.6;;;;;;;2.32;92.01367;95806.59;;;;
2019/12/10 06:11:25;;;;;;;14.75;3.6;;;;;;;2.32;92.01367;95806.59;;;;
2019/12/10 06:12:26;;;;;;;14.75;3.6;;;;;;;2.32;92.01367;95806.59;;;;
2019/12/10 06:13:27;;;;;;;14.75;3.6;;;;;;;2.32;92.01367;95806.59;;;;
2019/12/10 06:14:29;;;;;;;14.75;3.6;;;;;;;2.32;92.01367;95806.59;;;;
2019/12/10 06:15:30;;;;;;;14.75;3.6;;;;;;;2.32;92.01367;95806.59;;;;
2019/12/10 06:16:31;;;;;;;14.75;3.6;;;;;;;2.32;92.01367;95806.59;;;;
2019/12/10 06:17:32;;;;;;;14.7;3.05;;;;;;;2.19;91.66113;95848.44;;;;
2019/12/10 06:18:33;;;;;;;14.7;3.05;;;;;;;2.19;91.66113;95848.44;;;;